Terminal Aerodrome Forecast
Issued by NWS Buffalo, NY

Home | Current Version | Previous Version | Text Only | Print | Product List | Glossary On
Versions: 1 2 3 4 5 6 7 8 9 10 11 12 13 14 15 16 17 18 19 20 21 22
485
FTUS41 KBUF 302323
TAFROC
TAF
KROC 302323Z 0100/0124 05006KT P6SM BKN050 OVC200
     FM010600 10005KT 6SM -RA OVC045
     FM010800 11007KT 6SM -RA OVC030
     FM011000 12010G16KT 6SM -RA OVC020
     FM011900 14008KT 6SM -SHRA OVC012
     FM012100 09006KT 6SM -SHRA OVC012
     FM012300 02006KT 6SM -SHRA OVC012=

USA.gov is the U.S. government's official web portal to all federal, state and local government web resources and services.